This is the latest recevied weather packets stored in our database for station/object LX0WX-13. If no packets are shown the sender has not sent any weather packets the latest 10 day(s).
| Time | Temp. | Humidity | Pressure | Rain* | Wind** | Luminosity | Snow |
|---|---|---|---|---|---|---|---|
| 1777735862 | 21.11° C | 44% | 1012.9 hPa | 0 mm | - | - | - |
| 1777735562 | 21.67° C | 43% | 1012.9 hPa | 0 mm | - | - | - |
| 1777735262 | 21.67° C | 43% | 1012.9 hPa | 0 mm | - | - | - |
| 1777734962 | 22.22° C | 42% | 1012.9 hPa | 0 mm | - | - | - |
| 1777734662 | 22.78° C | 41% | 1013.1 hPa | 0 mm | - | - | - |
| 1777734362 | 23.33° C | 39% | 1013.3 hPa | 0 mm | - | - | - |
| 1777734062 | 24.44° C | 36% | 1013.3 hPa | 0 mm | - | - | - |
| 1777733762 | 25° C | 34% | 1013.3 hPa | 0 mm | - | - | - |
| 1777733462 | 26.11° C | 34% | 1013.5 hPa | 0 mm | - | - | - |
| 1777733162 | 26.67° C | 34% | 1013.5 hPa | 0 mm | - | - | - |
| 1777732862 | 25.56° C | 35% | 1013.5 hPa | 0 mm | - | - | - |
| 1777732262 | 25° C | 37% | 1013.6 hPa | 0 mm | - | - | - |
| 1777731962 | 24.44° C | 37% | 1013.6 hPa | 0 mm | - | - | - |
| 1777731662 | 24.44° C | 37% | 1013.8 hPa | 0 mm | - | - | - |
| 1777731362 | 24.44° C | 39% | 1014 hPa | 0 mm | - | - | - |
| 1777731062 | 23.33° C | 40% | 1013.9 hPa | 0 mm | - | - | - |
| 1777730762 | 23.33° C | 39% | 1014.1 hPa | 0 mm | - | - | - |
| 1777730462 | 23.89° C | 37% | 1014.2 hPa | 0 mm | - | - | - |
| 1777730162 | 24.44° C | 35% | 1014.2 hPa | 0 mm | - | - | - |
| 1777729862 | 25.56° C | 33% | 1014.2 hPa | 0 mm | - | - | - |
| 1777729562 | 26.67° C | 32% | 1014.4 hPa | 0 mm | - | - | - |
| 1777729262 | 26.67° C | 33% | 1014.3 hPa | 0 mm | - | - | - |
| 1777728962 | 26.67° C | 32% | 1014.4 hPa | 0 mm | - | - | - |
| 1777728662 | 26.67° C | 33% | 1014.4 hPa | 0 mm | - | - | - |
| 1777728362 | 26.67° C | 32% | 1014.5 hPa | 0 mm | - | - | - |
* Rain latest hour (hover to see other rain measurements)
** Current wind speed in m/s (hover to see current wind gust speed)